sensor_id;sensor_type;location;lat;lon;timestamp;P1;durP1;ratioP1;P2;durP2;ratioP2
54787;SDS011;59598;48.112;16.280;2023-06-14T00:00:42;2.85;;;2.17;;
54787;SDS011;59598;48.112;16.280;2023-06-14T00:03:17;2.88;;;2.35;;
54787;SDS011;59598;48.112;16.280;2023-06-14T00:05:50;3.35;;;2.63;;
54787;SDS011;59598;48.112;16.280;2023-06-14T00:08:21;3.03;;;2.10;;
54787;SDS011;59598;48.112;16.280;2023-06-14T00:10:58;2.67;;;2.13;;
54787;SDS011;59598;48.112;16.280;2023-06-14T00:13:35;2.83;;;2.13;;
54787;SDS011;59598;48.112;16.280;2023-06-14T00:16:08;2.83;;;2.57;;
54787;SDS011;59598;48.112;16.280;2023-06-14T00:18:42;4.60;;;2.53;;
54787;SDS011;59598;48.112;16.280;2023-06-14T00:21:17;2.88;;;2.47;;
54787;SDS011;59598;48.112;16.280;2023-06-14T00:23:49;3.05;;;2.75;;
54787;SDS011;59598;48.112;16.280;2023-06-14T00:26:23;3.03;;;2.72;;
54787;SDS011;59598;48.112;16.280;2023-06-14T00:28:56;2.67;;;2.47;;
54787;SDS011;59598;48.112;16.280;2023-06-14T00:31:28;3.35;;;2.90;;
54787;SDS011;59598;48.112;16.280;2023-06-14T00:34:01;3.42;;;2.28;;
54787;SDS011;59598;48.112;16.280;2023-06-14T00:36:34;2.63;;;2.30;;
54787;SDS011;59598;48.112;16.280;2023-06-14T00:39:07;4.18;;;2.40;;
54787;SDS011;59598;48.112;16.280;2023-06-14T00:41:42;2.60;;;2.40;;
54787;SDS011;59598;48.112;16.280;2023-06-14T00:44:16;2.65;;;2.20;;
54787;SDS011;59598;48.112;16.280;2023-06-14T00:49:27;2.60;;;2.40;;
54787;SDS011;59598;48.112;16.280;2023-06-14T00:52:02;3.42;;;2.00;;
54787;SDS011;59598;48.112;16.280;2023-06-14T00:54:34;5.82;;;3.00;;
54787;SDS011;59598;48.112;16.280;2023-06-14T00:57:08;2.45;;;2.25;;
54787;SDS011;59598;48.112;16.280;2023-06-14T00:59:47;3.63;;;2.55;;
54787;SDS011;59598;48.112;16.280;2023-06-14T01:02:22;3.40;;;2.40;;
54787;SDS011;59598;48.112;16.280;2023-06-14T01:04:54;3.17;;;2.35;;
54787;SDS011;59598;48.112;16.280;2023-06-14T01:10:41;3.03;;;2.60;;
54787;SDS011;59598;48.112;16.280;2023-06-14T01:15:59;2.58;;;2.38;;
54787;SDS011;59598;48.112;16.280;2023-06-14T01:18:32;3.38;;;2.10;;
54787;SDS011;59598;48.112;16.280;2023-06-14T01:21:06;2.97;;;2.67;;
54787;SDS011;59598;48.112;16.280;2023-06-14T01:23:53;3.55;;;2.90;;
54787;SDS011;59598;48.112;16.280;2023-06-14T01:26:25;2.67;;;2.28;;
54787;SDS011;59598;48.112;16.280;2023-06-14T01:28:59;2.47;;;2.28;;
54787;SDS011;59598;48.112;16.280;2023-06-14T01:31:31;3.60;;;2.03;;
54787;SDS011;59598;48.112;16.280;2023-06-14T01:34:14;2.70;;;2.50;;
54787;SDS011;59598;48.112;16.280;2023-06-14T01:36:45;4.15;;;2.40;;
54787;SDS011;59598;48.112;16.280;2023-06-14T01:39:25;5.35;;;2.50;;
54787;SDS011;59598;48.112;16.280;2023-06-14T01:41:56;2.28;;;2.08;;
54787;SDS011;59598;48.112;16.280;2023-06-14T01:44:31;3.90;;;2.38;;
54787;SDS011;59598;48.112;16.280;2023-06-14T01:47:08;2.45;;;2.25;;
54787;SDS011;59598;48.112;16.280;2023-06-14T01:49:40;3.08;;;2.78;;
54787;SDS011;59598;48.112;16.280;2023-06-14T01:52:12;2.95;;;2.28;;
54787;SDS011;59598;48.112;16.280;2023-06-14T01:54:44;3.38;;;2.95;;
54787;SDS011;59598;48.112;16.280;2023-06-14T01:57:20;3.88;;;2.47;;
54787;SDS011;59598;48.112;16.280;2023-06-14T01:59:53;3.08;;;2.78;;
54787;SDS011;59598;48.112;16.280;2023-06-14T02:02:25;3.83;;;2.63;;
54787;SDS011;59598;48.112;16.280;2023-06-14T02:04:56;5.05;;;2.78;;
54787;SDS011;59598;48.112;16.280;2023-06-14T02:07:28;4.82;;;2.55;;
54787;SDS011;59598;48.112;16.280;2023-06-14T02:10:02;2.53;;;2.28;;
54787;SDS011;59598;48.112;16.280;2023-06-14T02:12:36;3.08;;;2.53;;
54787;SDS011;59598;48.112;16.280;2023-06-14T02:15:10;4.90;;;2.50;;
54787;SDS011;59598;48.112;16.280;2023-06-14T02:17:47;2.65;;;2.45;;
54787;SDS011;59598;48.112;16.280;2023-06-14T02:20:20;2.75;;;2.55;;
54787;SDS011;59598;48.112;16.280;2023-06-14T02:22:53;2.67;;;2.25;;
54787;SDS011;59598;48.112;16.280;2023-06-14T02:25:25;3.65;;;2.40;;
54787;SDS011;59598;48.112;16.280;2023-06-14T02:27:58;2.97;;;2.20;;
54787;SDS011;59598;48.112;16.280;2023-06-14T02:30:32;3.38;;;2.17;;
54787;SDS011;59598;48.112;16.280;2023-06-14T02:33:03;3.53;;;2.45;;
54787;SDS011;59598;48.112;16.280;2023-06-14T02:35:35;2.78;;;2.20;;
54787;SDS011;59598;48.112;16.280;2023-06-14T02:38:08;2.97;;;2.38;;
54787;SDS011;59598;48.112;16.280;2023-06-14T02:40:42;3.08;;;2.80;;
54787;SDS011;59598;48.112;16.280;2023-06-14T02:43:13;2.78;;;2.08;;
54787;SDS011;59598;48.112;16.280;2023-06-14T02:45:48;2.17;;;1.98;;
54787;SDS011;59598;48.112;16.280;2023-06-14T02:48:19;5.63;;;2.65;;
54787;SDS011;59598;48.112;16.280;2023-06-14T02:50:53;2.70;;;2.50;;
54787;SDS011;59598;48.112;16.280;2023-06-14T02:53:25;2.72;;;2.53;;
54787;SDS011;59598;48.112;16.280;2023-06-14T02:55:58;2.80;;;2.60;;
54787;SDS011;59598;48.112;16.280;2023-06-14T02:58:35;4.18;;;2.58;;
54787;SDS011;59598;48.112;16.280;2023-06-14T03:01:07;2.55;;;2.30;;
54787;SDS011;59598;48.112;16.280;2023-06-14T03:03:40;3.15;;;2.80;;
54787;SDS011;59598;48.112;16.280;2023-06-14T03:06:13;3.33;;;2.67;;
54787;SDS011;59598;48.112;16.280;2023-06-14T03:11:25;2.97;;;2.50;;
54787;SDS011;59598;48.112;16.280;2023-06-14T03:14:02;4.32;;;2.78;;
54787;SDS011;59598;48.112;16.280;2023-06-14T03:16:41;3.88;;;2.70;;
54787;SDS011;59598;48.112;16.280;2023-06-14T03:19:13;3.03;;;2.75;;
54787;SDS011;59598;48.112;16.280;2023-06-14T03:21:45;4.18;;;2.72;;
54787;SDS011;59598;48.112;16.280;2023-06-14T03:24:19;2.90;;;2.65;;
54787;SDS011;59598;48.112;16.280;2023-06-14T03:26:50;3.27;;;2.97;;
54787;SDS011;59598;48.112;16.280;2023-06-14T03:29:25;3.25;;;2.67;;
54787;SDS011;59598;48.112;16.280;2023-06-14T03:32:00;5.13;;;3.38;;
54787;SDS011;59598;48.112;16.280;2023-06-14T03:34:33;3.20;;;2.90;;
54787;SDS011;59598;48.112;16.280;2023-06-14T03:37:07;4.63;;;3.95;;
54787;SDS011;59598;48.112;16.280;2023-06-14T03:39:41;4.03;;;2.63;;
54787;SDS011;59598;48.112;16.280;2023-06-14T03:42:16;3.45;;;2.72;;
54787;SDS011;59598;48.112;16.280;2023-06-14T03:44:48;4.60;;;3.35;;
54787;SDS011;59598;48.112;16.280;2023-06-14T03:47:21;12.00;;;2.80;;
54787;SDS011;59598;48.112;16.280;2023-06-14T03:49:54;3.70;;;2.60;;
54787;SDS011;59598;48.112;16.280;2023-06-14T03:52:29;5.05;;;3.13;;
54787;SDS011;59598;48.112;16.280;2023-06-14T03:55:04;2.67;;;2.47;;
54787;SDS011;59598;48.112;16.280;2023-06-14T03:57:39;6.07;;;2.28;;
54787;SDS011;59598;48.112;16.280;2023-06-14T04:00:11;4.05;;;2.60;;
54787;SDS011;59598;48.112;16.280;2023-06-14T04:02:51;2.58;;;2.38;;
54787;SDS011;59598;48.112;16.280;2023-06-14T04:05:22;2.97;;;2.63;;
54787;SDS011;59598;48.112;16.280;2023-06-14T04:07:57;3.75;;;2.78;;
54787;SDS011;59598;48.112;16.280;2023-06-14T04:10:31;2.80;;;2.60;;
54787;SDS011;59598;48.112;16.280;2023-06-14T04:13:03;2.90;;;2.60;;
54787;SDS011;59598;48.112;16.280;2023-06-14T04:15:37;3.38;;;2.28;;
54787;SDS011;59598;48.112;16.280;2023-06-14T04:18:12;2.88;;;2.50;;
54787;SDS011;59598;48.112;16.280;2023-06-14T04:20:46;2.78;;;2.20;;
54787;SDS011;59598;48.112;16.280;2023-06-14T04:23:17;2.85;;;2.53;;
54787;SDS011;59598;48.112;16.280;2023-06-14T04:25:49;2.53;;;2.33;;
54787;SDS011;59598;48.112;16.280;2023-06-14T04:28:20;2.47;;;2.28;;
54787;SDS011;59598;48.112;16.280;2023-06-14T04:30:56;3.42;;;2.60;;
54787;SDS011;59598;48.112;16.280;2023-06-14T04:33:34;6.50;;;2.40;;
54787;SDS011;59598;48.112;16.280;2023-06-14T04:36:13;3.28;;;2.67;;
54787;SDS011;59598;48.112;16.280;2023-06-14T04:38:48;6.30;;;2.20;;
54787;SDS011;59598;48.112;16.280;2023-06-14T04:41:20;2.35;;;2.10;;
54787;SDS011;59598;48.112;16.280;2023-06-14T04:43:53;2.53;;;2.33;;
54787;SDS011;59598;48.112;16.280;2023-06-14T04:46:24;2.30;;;2.10;;
54787;SDS011;59598;48.112;16.280;2023-06-14T04:49:01;4.60;;;2.75;;
54787;SDS011;59598;48.112;16.280;2023-06-14T04:51:33;2.55;;;2.35;;
54787;SDS011;59598;48.112;16.280;2023-06-14T04:54:08;3.03;;;2.67;;
54787;SDS011;59598;48.112;16.280;2023-06-14T04:56:49;3.70;;;2.40;;
54787;SDS011;59598;48.112;16.280;2023-06-14T04:59:21;3.25;;;2.35;;
54787;SDS011;59598;48.112;16.280;2023-06-14T05:01:57;3.63;;;2.78;;
54787;SDS011;59598;48.112;16.280;2023-06-14T05:04:31;3.08;;;2.50;;
54787;SDS011;59598;48.112;16.280;2023-06-14T05:07:03;2.83;;;2.20;;
54787;SDS011;59598;48.112;16.280;2023-06-14T05:09:40;3.50;;;2.53;;
54787;SDS011;59598;48.112;16.280;2023-06-14T05:12:11;3.13;;;2.60;;
54787;SDS011;59598;48.112;16.280;2023-06-14T05:14:48;4.50;;;2.22;;
54787;SDS011;59598;48.112;16.280;2023-06-14T05:17:23;2.35;;;2.15;;
54787;SDS011;59598;48.112;16.280;2023-06-14T05:19:54;3.30;;;2.50;;
54787;SDS011;59598;48.112;16.280;2023-06-14T05:22:26;5.32;;;2.90;;
54787;SDS011;59598;48.112;16.280;2023-06-14T05:24:58;2.65;;;2.45;;
54787;SDS011;59598;48.112;16.280;2023-06-14T05:27:29;3.03;;;2.35;;
54787;SDS011;59598;48.112;16.280;2023-06-14T05:30:03;5.00;;;2.22;;
54787;SDS011;59598;48.112;16.280;2023-06-14T05:32:37;3.25;;;2.50;;
54787;SDS011;59598;48.112;16.280;2023-06-14T05:35:11;3.10;;;2.35;;
54787;SDS011;59598;48.112;16.280;2023-06-14T05:37:42;2.22;;;2.03;;
54787;SDS011;59598;48.112;16.280;2023-06-14T05:40:16;4.70;;;2.83;;
54787;SDS011;59598;48.112;16.280;2023-06-14T05:42:48;3.72;;;2.67;;
54787;SDS011;59598;48.112;16.280;2023-06-14T05:45:23;2.58;;;2.13;;
54787;SDS011;59598;48.112;16.280;2023-06-14T05:47:56;2.63;;;2.40;;
54787;SDS011;59598;48.112;16.280;2023-06-14T05:50:28;2.80;;;2.40;;
54787;SDS011;59598;48.112;16.280;2023-06-14T05:52:59;3.30;;;2.15;;
54787;SDS011;59598;48.112;16.280;2023-06-14T05:55:30;3.55;;;2.35;;
54787;SDS011;59598;48.112;16.280;2023-06-14T05:58:01;3.10;;;2.78;;
54787;SDS011;59598;48.112;16.280;2023-06-14T06:00:35;3.60;;;2.30;;
54787;SDS011;59598;48.112;16.280;2023-06-14T06:03:09;3.40;;;2.67;;
54787;SDS011;59598;48.112;16.280;2023-06-14T06:05:43;6.63;;;3.25;;
54787;SDS011;59598;48.112;16.280;2023-06-14T06:08:15;2.60;;;2.00;;
54787;SDS011;59598;48.112;16.280;2023-06-14T06:10:50;3.17;;;1.90;;
54787;SDS011;59598;48.112;16.280;2023-06-14T06:13:22;4.53;;;2.55;;
54787;SDS011;59598;48.112;16.280;2023-06-14T06:15:54;2.72;;;2.45;;
54787;SDS011;59598;48.112;16.280;2023-06-14T06:21:08;2.50;;;2.30;;
54787;SDS011;59598;48.112;16.280;2023-06-14T06:23:42;3.20;;;2.13;;
54787;SDS011;59598;48.112;16.280;2023-06-14T06:26:13;4.10;;;3.13;;
54787;SDS011;59598;48.112;16.280;2023-06-14T06:28:44;3.53;;;2.25;;
54787;SDS011;59598;48.112;16.280;2023-06-14T06:31:18;3.05;;;2.60;;
54787;SDS011;59598;48.112;16.280;2023-06-14T06:33:49;2.75;;;2.33;;
54787;SDS011;59598;48.112;16.280;2023-06-14T06:36:21;3.17;;;2.55;;
54787;SDS011;59598;48.112;16.280;2023-06-14T06:38:52;4.00;;;2.40;;
54787;SDS011;59598;48.112;16.280;2023-06-14T06:41:23;2.38;;;2.17;;
54787;SDS011;59598;48.112;16.280;2023-06-14T06:43:55;3.22;;;2.10;;
54787;SDS011;59598;48.112;16.280;2023-06-14T06:46:32;5.03;;;2.10;;
54787;SDS011;59598;48.112;16.280;2023-06-14T06:49:04;1.88;;;1.77;;
54787;SDS011;59598;48.112;16.280;2023-06-14T06:51:36;2.22;;;2.03;;
54787;SDS011;59598;48.112;16.280;2023-06-14T06:54:10;2.15;;;1.80;;
54787;SDS011;59598;48.112;16.280;2023-06-14T06:56:42;2.08;;;1.73;;
54787;SDS011;59598;48.112;16.280;2023-06-14T06:59:13;2.03;;;1.83;;
54787;SDS011;59598;48.112;16.280;2023-06-14T07:01:49;2.95;;;1.98;;
54787;SDS011;59598;48.112;16.280;2023-06-14T07:04:23;3.35;;;2.42;;
54787;SDS011;59598;48.112;16.280;2023-06-14T07:07:00;2.58;;;2.10;;
54787;SDS011;59598;48.112;16.280;2023-06-14T07:09:31;1.90;;;1.70;;
54787;SDS011;59598;48.112;16.280;2023-06-14T07:12:05;2.17;;;1.95;;
54787;SDS011;59598;48.112;16.280;2023-06-14T07:14:37;2.30;;;2.10;;
54787;SDS011;59598;48.112;16.280;2023-06-14T07:19:48;5.95;;;2.70;;
54787;SDS011;59598;48.112;16.280;2023-06-14T07:22:26;2.33;;;2.00;;
54787;SDS011;59598;48.112;16.280;2023-06-14T07:24:57;2.25;;;2.05;;
54787;SDS011;59598;48.112;16.280;2023-06-14T07:27:29;2.25;;;2.05;;
54787;SDS011;59598;48.112;16.280;2023-06-14T07:30:00;2.60;;;2.40;;
54787;SDS011;59598;48.112;16.280;2023-06-14T07:32:36;2.45;;;2.10;;
54787;SDS011;59598;48.112;16.280;2023-06-14T07:35:07;2.28;;;1.83;;
54787;SDS011;59598;48.112;16.280;2023-06-14T07:37:39;2.22;;;1.98;;
54787;SDS011;59598;48.112;16.280;2023-06-14T07:40:14;2.08;;;1.90;;
54787;SDS011;59598;48.112;16.280;2023-06-14T07:42:45;2.67;;;1.90;;
54787;SDS011;59598;48.112;16.280;2023-06-14T07:45:21;4.20;;;2.60;;
54787;SDS011;59598;48.112;16.280;2023-06-14T07:47:54;3.65;;;2.10;;
54787;SDS011;59598;48.112;16.280;2023-06-14T07:50:27;2.47;;;1.90;;
54787;SDS011;59598;48.112;16.280;2023-06-14T07:53:04;2.30;;;1.90;;
54787;SDS011;59598;48.112;16.280;2023-06-14T07:55:36;1.98;;;1.52;;
54787;SDS011;59598;48.112;16.280;2023-06-14T07:58:13;2.55;;;1.85;;
54787;SDS011;59598;48.112;16.280;2023-06-14T08:00:50;1.70;;;1.60;;
54787;SDS011;59598;48.112;16.280;2023-06-14T08:03:24;4.45;;;1.85;;
54787;SDS011;59598;48.112;16.280;2023-06-14T08:05:55;1.67;;;1.58;;
54787;SDS011;59598;48.112;16.280;2023-06-14T08:08:29;1.70;;;1.60;;
54787;SDS011;59598;48.112;16.280;2023-06-14T08:11:01;2.83;;;1.73;;
54787;SDS011;59598;48.112;16.280;2023-06-14T08:13:33;3.38;;;1.95;;
54787;SDS011;59598;48.112;16.280;2023-06-14T08:16:05;2.08;;;1.85;;
54787;SDS011;59598;48.112;16.280;2023-06-14T08:18:36;1.73;;;1.60;;
54787;SDS011;59598;48.112;16.280;2023-06-14T08:21:09;3.47;;;1.83;;
54787;SDS011;59598;48.112;16.280;2023-06-14T08:23:44;3.45;;;2.22;;
54787;SDS011;59598;48.112;16.280;2023-06-14T08:26:15;2.05;;;1.88;;
54787;SDS011;59598;48.112;16.280;2023-06-14T08:28:50;2.20;;;2.00;;
54787;SDS011;59598;48.112;16.280;2023-06-14T08:33:58;1.55;;;1.40;;
54787;SDS011;59598;48.112;16.280;2023-06-14T08:36:30;2.67;;;1.80;;
54787;SDS011;59598;48.112;16.280;2023-06-14T08:39:03;1.98;;;1.60;;
54787;SDS011;59598;48.112;16.280;2023-06-14T08:41:39;2.80;;;1.80;;
54787;SDS011;59598;48.112;16.280;2023-06-14T08:44:11;3.13;;;1.80;;
54787;SDS011;59598;48.112;16.280;2023-06-14T08:46:43;4.28;;;1.92;;
54787;SDS011;59598;48.112;16.280;2023-06-14T08:49:18;2.78;;;1.58;;
54787;SDS011;59598;48.112;16.280;2023-06-14T08:51:57;2.30;;;1.60;;
54787;SDS011;59598;48.112;16.280;2023-06-14T08:57:06;1.92;;;1.75;;
54787;SDS011;59598;48.112;16.280;2023-06-14T08:59:47;2.20;;;1.85;;
54787;SDS011;59598;48.112;16.280;2023-06-14T09:02:23;3.60;;;2.50;;
54787;SDS011;59598;48.112;16.280;2023-06-14T09:04:55;2.50;;;1.90;;
54787;SDS011;59598;48.112;16.280;2023-06-14T09:10:13;1.98;;;1.67;;
54787;SDS011;59598;48.112;16.280;2023-06-14T09:12:46;2.30;;;1.98;;
54787;SDS011;59598;48.112;16.280;2023-06-14T09:15:24;3.53;;;1.77;;
54787;SDS011;59598;48.112;16.280;2023-06-14T09:17:56;1.50;;;1.40;;
54787;SDS011;59598;48.112;16.280;2023-06-14T09:20:29;2.00;;;1.60;;
54787;SDS011;59598;48.112;16.280;2023-06-14T09:23:02;1.90;;;1.73;;
54787;SDS011;59598;48.112;16.280;2023-06-14T09:25:43;1.98;;;1.80;;
54787;SDS011;59598;48.112;16.280;2023-06-14T09:28:19;2.55;;;1.75;;
54787;SDS011;59598;48.112;16.280;2023-06-14T09:30:53;1.95;;;1.77;;
54787;SDS011;59598;48.112;16.280;2023-06-14T09:33:25;2.03;;;1.58;;
54787;SDS011;59598;48.112;16.280;2023-06-14T09:36:01;1.95;;;1.60;;
54787;SDS011;59598;48.112;16.280;2023-06-14T09:38:33;2.35;;;1.40;;
54787;SDS011;59598;48.112;16.280;2023-06-14T09:41:07;2.35;;;1.45;;
54787;SDS011;59598;48.112;16.280;2023-06-14T09:43:39;2.17;;;1.90;;
54787;SDS011;59598;48.112;16.280;2023-06-14T09:46:16;1.35;;;1.25;;
54787;SDS011;59598;48.112;16.280;2023-06-14T09:48:48;2.38;;;1.70;;
54787;SDS011;59598;48.112;16.280;2023-06-14T09:51:19;2.15;;;1.63;;
54787;SDS011;59598;48.112;16.280;2023-06-14T09:53:55;3.83;;;1.58;;
54787;SDS011;59598;48.112;16.280;2023-06-14T09:56:35;1.90;;;1.70;;
54787;SDS011;59598;48.112;16.280;2023-06-14T09:59:09;2.65;;;2.20;;
54787;SDS011;59598;48.112;16.280;2023-06-14T10:01:41;1.40;;;1.30;;
54787;SDS011;59598;48.112;16.280;2023-06-14T10:04:13;2.90;;;1.48;;
54787;SDS011;59598;48.112;16.280;2023-06-14T10:06:53;2.33;;;2.00;;
54787;SDS011;59598;48.112;16.280;2023-06-14T10:09:25;2.78;;;1.92;;
54787;SDS011;59598;48.112;16.280;2023-06-14T10:12:00;2.58;;;1.80;;
54787;SDS011;59598;48.112;16.280;2023-06-14T10:14:37;3.17;;;1.50;;
54787;SDS011;59598;48.112;16.280;2023-06-14T10:17:12;1.95;;;1.50;;
54787;SDS011;59598;48.112;16.280;2023-06-14T10:23:07;3.65;;;1.58;;
54787;SDS011;59598;48.112;16.280;2023-06-14T10:25:49;2.30;;;2.00;;
54787;SDS011;59598;48.112;16.280;2023-06-14T10:28:24;2.85;;;1.70;;
54787;SDS011;59598;48.112;16.280;2023-06-14T10:39:17;2.38;;;1.60;;
54787;SDS011;59598;48.112;16.280;2023-06-14T10:41:51;10.77;;;1.80;;
54787;SDS011;59598;48.112;16.280;2023-06-14T10:46:55;2.00;;;1.35;;
54787;SDS011;59598;48.112;16.280;2023-06-14T10:49:38;3.38;;;1.73;;
54787;SDS011;59598;48.112;16.280;2023-06-14T10:52:13;2.33;;;2.00;;
54787;SDS011;59598;48.112;16.280;2023-06-14T10:57:35;2.90;;;1.77;;
54787;SDS011;59598;48.112;16.280;2023-06-14T11:00:07;5.38;;;2.05;;
54787;SDS011;59598;48.112;16.280;2023-06-14T11:05:55;2.40;;;2.13;;
54787;SDS011;59598;48.112;16.280;2023-06-14T11:11:34;3.83;;;2.28;;
54787;SDS011;59598;48.112;16.280;2023-06-14T11:14:07;3.53;;;1.60;;
54787;SDS011;59598;48.112;16.280;2023-06-14T11:16:39;1.75;;;1.65;;
54787;SDS011;59598;48.112;16.280;2023-06-14T11:19:15;4.90;;;1.67;;
54787;SDS011;59598;48.112;16.280;2023-06-14T11:21:50;1.83;;;1.55;;
54787;SDS011;59598;48.112;16.280;2023-06-14T11:24:23;1.92;;;1.52;;
54787;SDS011;59598;48.112;16.280;2023-06-14T11:26:55;2.17;;;1.70;;
54787;SDS011;59598;48.112;16.280;2023-06-14T11:29:29;2.08;;;1.50;;
54787;SDS011;59598;48.112;16.280;2023-06-14T11:34:45;1.40;;;1.30;;
54787;SDS011;59598;48.112;16.280;2023-06-14T11:37:17;1.67;;;1.50;;
54787;SDS011;59598;48.112;16.280;2023-06-14T11:39:49;2.05;;;1.40;;
54787;SDS011;59598;48.112;16.280;2023-06-14T11:42:20;1.70;;;1.60;;
54787;SDS011;59598;48.112;16.280;2023-06-14T11:44:52;2.25;;;1.77;;
54787;SDS011;59598;48.112;16.280;2023-06-14T11:47:35;1.88;;;1.50;;
54787;SDS011;59598;48.112;16.280;2023-06-14T11:50:11;1.95;;;1.42;;
54787;SDS011;59598;48.112;16.280;2023-06-14T11:52:44;3.10;;;1.95;;
54787;SDS011;59598;48.112;16.280;2023-06-14T11:55:33;2.08;;;1.75;;
54787;SDS011;59598;48.112;16.280;2023-06-14T11:58:10;1.67;;;1.58;;
54787;SDS011;59598;48.112;16.280;2023-06-14T12:00:45;1.48;;;1.35;;
54787;SDS011;59598;48.112;16.280;2023-06-14T12:03:25;1.52;;;1.42;;
54787;SDS011;59598;48.112;16.280;2023-06-14T12:06:19;2.30;;;1.40;;
54787;SDS011;59598;48.112;16.280;2023-06-14T12:09:05;1.75;;;1.35;;
54787;SDS011;59598;48.112;16.280;2023-06-14T12:11:43;1.50;;;1.27;;
54787;SDS011;59598;48.112;16.280;2023-06-14T12:14:17;1.55;;;1.45;;
54787;SDS011;59598;48.112;16.280;2023-06-14T12:16:50;2.33;;;1.50;;
54787;SDS011;59598;48.112;16.280;2023-06-14T12:19:43;2.20;;;1.33;;
54787;SDS011;59598;48.112;16.280;2023-06-14T12:22:21;1.40;;;1.30;;
54787;SDS011;59598;48.112;16.280;2023-06-14T12:24:53;1.35;;;1.25;;
54787;SDS011;59598;48.112;16.280;2023-06-14T12:27:25;2.65;;;1.30;;
54787;SDS011;59598;48.112;16.280;2023-06-14T12:30:00;1.77;;;1.60;;
54787;SDS011;59598;48.112;16.280;2023-06-14T12:32:38;1.88;;;1.20;;
54787;SDS011;59598;48.112;16.280;2023-06-14T12:35:11;1.45;;;1.33;;
54787;SDS011;59598;48.112;16.280;2023-06-14T12:37:42;2.05;;;1.73;;
54787;SDS011;59598;48.112;16.280;2023-06-14T12:40:13;1.60;;;1.50;;
54787;SDS011;59598;48.112;16.280;2023-06-14T12:42:45;1.55;;;1.45;;
54787;SDS011;59598;48.112;16.280;2023-06-14T12:47:53;1.75;;;1.40;;
54787;SDS011;59598;48.112;16.280;2023-06-14T12:50:27;3.92;;;1.83;;
54787;SDS011;59598;48.112;16.280;2023-06-14T12:52:58;2.10;;;1.90;;
54787;SDS011;59598;48.112;16.280;2023-06-14T12:55:29;1.63;;;1.30;;
54787;SDS011;59598;48.112;16.280;2023-06-14T12:58:02;3.33;;;2.15;;
54787;SDS011;59598;48.112;16.280;2023-06-14T13:00:35;1.45;;;1.35;;
54787;SDS011;59598;48.112;16.280;2023-06-14T13:05:40;1.45;;;1.35;;
54787;SDS011;59598;48.112;16.280;2023-06-14T13:08:12;1.63;;;1.50;;
54787;SDS011;59598;48.112;16.280;2023-06-14T13:10:45;1.50;;;1.40;;
54787;SDS011;59598;48.112;16.280;2023-06-14T13:15:50;1.67;;;1.20;;
54787;SDS011;59598;48.112;16.280;2023-06-14T13:18:22;2.70;;;1.52;;
54787;SDS011;59598;48.112;16.280;2023-06-14T13:23:31;1.95;;;1.35;;
54787;SDS011;59598;48.112;16.280;2023-06-14T13:26:03;1.40;;;1.30;;
54787;SDS011;59598;48.112;16.280;2023-06-14T13:28:35;1.73;;;1.30;;
54787;SDS011;59598;48.112;16.280;2023-06-14T13:31:06;1.92;;;1.60;;
54787;SDS011;59598;48.112;16.280;2023-06-14T13:33:41;1.83;;;1.20;;
54787;SDS011;59598;48.112;16.280;2023-06-14T13:36:12;1.83;;;1.65;;
54787;SDS011;59598;48.112;16.280;2023-06-14T13:38:50;1.55;;;1.45;;
54787;SDS011;59598;48.112;16.280;2023-06-14T13:41:23;1.48;;;1.25;;
54787;SDS011;59598;48.112;16.280;2023-06-14T13:43:54;1.65;;;1.25;;
54787;SDS011;59598;48.112;16.280;2023-06-14T13:46:26;1.55;;;1.27;;
54787;SDS011;59598;48.112;16.280;2023-06-14T13:48:57;1.48;;;1.30;;
54787;SDS011;59598;48.112;16.280;2023-06-14T13:51:29;2.03;;;1.60;;
54787;SDS011;59598;48.112;16.280;2023-06-14T13:54:00;1.48;;;1.33;;
54787;SDS011;59598;48.112;16.280;2023-06-14T13:56:35;1.35;;;1.25;;
54787;SDS011;59598;48.112;16.280;2023-06-14T13:59:11;2.17;;;1.58;;
54787;SDS011;59598;48.112;16.280;2023-06-14T14:01:43;2.40;;;1.90;;
54787;SDS011;59598;48.112;16.280;2023-06-14T14:04:14;1.80;;;1.58;;
54787;SDS011;59598;48.112;16.280;2023-06-14T14:06:45;1.63;;;1.50;;
54787;SDS011;59598;48.112;16.280;2023-06-14T14:09:22;3.72;;;1.58;;
54787;SDS011;59598;48.112;16.280;2023-06-14T14:11:56;1.70;;;1.40;;
54787;SDS011;59598;48.112;16.280;2023-06-14T14:14:28;2.40;;;1.65;;
54787;SDS011;59598;48.112;16.280;2023-06-14T14:17:00;1.55;;;1.45;;
54787;SDS011;59598;48.112;16.280;2023-06-14T14:19:32;1.27;;;1.17;;
54787;SDS011;59598;48.112;16.280;2023-06-14T14:22:03;3.78;;;1.50;;
54787;SDS011;59598;48.112;16.280;2023-06-14T14:24:35;1.70;;;1.30;;
54787;SDS011;59598;48.112;16.280;2023-06-14T14:27:06;1.88;;;1.38;;
54787;SDS011;59598;48.112;16.280;2023-06-14T14:29:38;1.98;;;1.45;;
54787;SDS011;59598;48.112;16.280;2023-06-14T14:32:13;2.38;;;1.40;;
54787;SDS011;59598;48.112;16.280;2023-06-14T14:34:45;2.97;;;1.73;;
54787;SDS011;59598;48.112;16.280;2023-06-14T14:37:16;3.40;;;1.20;;
54787;SDS011;59598;48.112;16.280;2023-06-14T14:39:52;1.63;;;1.20;;
54787;SDS011;59598;48.112;16.280;2023-06-14T14:42:26;1.85;;;1.48;;
54787;SDS011;59598;48.112;16.280;2023-06-14T14:44:59;4.13;;;1.20;;
54787;SDS011;59598;48.112;16.280;2023-06-14T14:47:30;1.88;;;1.58;;
54787;SDS011;59598;48.112;16.280;2023-06-14T14:50:04;1.98;;;1.77;;
54787;SDS011;59598;48.112;16.280;2023-06-14T14:52:39;2.78;;;1.20;;
54787;SDS011;59598;48.112;16.280;2023-06-14T14:55:10;2.15;;;1.40;;
54787;SDS011;59598;48.112;16.280;2023-06-14T14:57:45;1.50;;;1.40;;
54787;SDS011;59598;48.112;16.280;2023-06-14T15:00:18;2.88;;;1.90;;
54787;SDS011;59598;48.112;16.280;2023-06-14T15:05:28;2.28;;;1.42;;
54787;SDS011;59598;48.112;16.280;2023-06-14T15:08:02;1.58;;;1.17;;
54787;SDS011;59598;48.112;16.280;2023-06-14T15:10:43;2.03;;;1.70;;
54787;SDS011;59598;48.112;16.280;2023-06-14T15:13:17;2.35;;;1.25;;
54787;SDS011;59598;48.112;16.280;2023-06-14T15:15:54;1.50;;;1.35;;
54787;SDS011;59598;48.112;16.280;2023-06-14T15:18:26;2.03;;;1.20;;
54787;SDS011;59598;48.112;16.280;2023-06-14T15:20:57;1.50;;;1.38;;
54787;SDS011;59598;48.112;16.280;2023-06-14T15:23:28;1.65;;;1.55;;
54787;SDS011;59598;48.112;16.280;2023-06-14T15:26:03;1.40;;;1.30;;
54787;SDS011;59598;48.112;16.280;2023-06-14T15:28:35;1.73;;;1.40;;
54787;SDS011;59598;48.112;16.280;2023-06-14T15:31:06;2.00;;;1.60;;
54787;SDS011;59598;48.112;16.280;2023-06-14T15:33:41;1.80;;;1.20;;
54787;SDS011;59598;48.112;16.280;2023-06-14T15:36:14;1.55;;;1.45;;
54787;SDS011;59598;48.112;16.280;2023-06-14T15:38:45;2.08;;;1.45;;
54787;SDS011;59598;48.112;16.280;2023-06-14T15:41:17;1.73;;;1.40;;
54787;SDS011;59598;48.112;16.280;2023-06-14T15:43:52;1.60;;;1.33;;
54787;SDS011;59598;48.112;16.280;2023-06-14T15:46:23;1.92;;;1.50;;
54787;SDS011;59598;48.112;16.280;2023-06-14T15:49:01;1.73;;;1.48;;
54787;SDS011;59598;48.112;16.280;2023-06-14T15:51:40;1.60;;;1.40;;
54787;SDS011;59598;48.112;16.280;2023-06-14T15:54:12;1.70;;;1.60;;
54787;SDS011;59598;48.112;16.280;2023-06-14T15:56:45;1.60;;;1.50;;
54787;SDS011;59598;48.112;16.280;2023-06-14T15:59:17;1.63;;;1.42;;
54787;SDS011;59598;48.112;16.280;2023-06-14T16:01:49;1.85;;;1.67;;
54787;SDS011;59598;48.112;16.280;2023-06-14T16:04:20;1.98;;;1.30;;
54787;SDS011;59598;48.112;16.280;2023-06-14T16:06:51;1.85;;;1.60;;
54787;SDS011;59598;48.112;16.280;2023-06-14T16:09:25;1.90;;;1.58;;
54787;SDS011;59598;48.112;16.280;2023-06-14T16:11:59;1.58;;;1.48;;
54787;SDS011;59598;48.112;16.280;2023-06-14T16:14:32;2.03;;;1.83;;